Davenport, WA

2:05 AM PDT on April 27, 2015 (GMT -0700)
RAWS | | Change Station
CLOSE
Current Station
Personal Weather Station
Location: Wellpinit, WA
Elevation: 2240 ft
Nearby Weather Stations

Elev 2240 ft 47.88 °N, 118.10 °W | Updated 57 minutes ago

Partly Cloudy
Partly Cloudy
42 °F
Feels Like 42 °F
N
2
Wind Variable Wind from ENE
Gusts 4.0 mph

Today
High -- | Low -- °F
--% Chance of Precip.
Yesterday
High -- | Low -- °F
Precip. -- in
5:42 AM 7:59 PM
Waxing Gibbous, 63% visible
Pressure 30.29 in
Visibility 10.0 miles
Clouds Clear
Windchill 42 °F
Dew Point 25 °F
Humidity 50%
Rainfall in
Snow Depth Not available.
UV 0 out of 12
Pollen 9.80 out of 12
Air Quality Not available.
Flu Activity Regional
METAR KSKA 270858Z AUTO 16002KT 10SM CLR 04/M03 A3026 RMK AO2 UPB0758E09UPB11E20 SLP256 P0000 60000 T00441034 50008

More Conditions Fewer Conditions

Pressure 30.29 in
Visibility 10.0 miles
Clouds Clear
Windchill 42 °F
Dew Point 25 °F
Humidity 50%
Rainfall in
Snow Depth Not available.
UV 0 out of 12
Pollen 9.80 out of 12
Air Quality Not available.
Flu Activity Regional
METAR KSKA 270858Z AUTO 16002KT 10SM CLR 04/M03 A3026 RMK AO2 UPB0758E09UPB11E20 SLP256 P0000 60000 T00441034 50008

More Conditions Fewer Conditions

10-Day Weather Forecast

Almanac

Astronomy

Apr. 27, 2015 Rise Set
Actual Time
Civil Twilight
Nautical Twilight
Astronomical Twilight
Moon
Length of Visible Light
Length of Day
Tomorrow will be .
, % of the Moon is Illuminated

Today's Extremes

State Highs State Lows

Community

WunderPhotos

Upload Photos

1,817,277 photos uploaded!

WunderBlogs® & News

Nearby

Air Quality

  Air Quality AQ Index Pollutant
Not available.

Snow Depth

Station Depth Elevation

Earthquake Activity

City Distance Mag. Time & Date
Minimum magnitude displayed is 2.5.

Coastal Water Temperatures

Place Temperature

Stations

Nearby Weather Stations

Station Location Temp. Windchill Dew Point Humidity Wind Precip. Elev Updated Type